createdAt,value
2023-02-19T00:01:42.311Z,10.70
2023-02-19T00:04:20.169Z,8.90
2023-02-19T00:06:53.789Z,8.60
2023-02-19T00:09:27.556Z,8.70
2023-02-19T00:12:00.712Z,8.00
2023-02-19T00:14:34.417Z,9.10
2023-02-19T00:17:08.388Z,8.80
2023-02-19T00:19:42.063Z,8.00
2023-02-19T00:22:14.966Z,7.60
2023-02-19T00:24:49.321Z,8.50
2023-02-19T00:27:23.615Z,8.80
2023-02-19T00:29:57.538Z,8.90
2023-02-19T00:32:31.556Z,9.30
2023-02-19T00:35:07.226Z,8.10
2023-02-19T00:37:40.772Z,8.30
2023-02-19T00:40:14.359Z,8.40
2023-02-19T00:42:47.645Z,9.50
2023-02-19T00:45:22.525Z,7.70
2023-02-19T00:47:56.125Z,10.50
2023-02-19T00:50:30.000Z,10.70
2023-02-19T00:53:02.917Z,9.70
2023-02-19T00:55:36.172Z,11.20
2023-02-19T00:58:09.070Z,10.60
2023-02-19T01:00:41.951Z,7.20
2023-02-19T01:03:14.783Z,8.50
2023-02-19T01:05:48.318Z,7.50
2023-02-19T01:08:23.235Z,7.10
2023-02-19T01:10:56.698Z,7.30
2023-02-19T01:13:30.235Z,6.90
2023-02-19T01:16:14.668Z,8.10
2023-02-19T01:18:48.553Z,7.80
2023-02-19T01:21:29.226Z,7.00
2023-02-19T01:24:02.472Z,8.50
2023-02-19T01:26:36.096Z,7.40
2023-02-19T01:29:09.331Z,7.80
2023-02-19T01:31:43.176Z,6.70
2023-02-19T01:34:16.396Z,7.30
2023-02-19T01:36:49.354Z,6.70
2023-02-19T01:39:22.396Z,7.60
2023-02-19T01:41:55.788Z,7.70
2023-02-19T01:44:31.268Z,7.20
2023-02-19T01:47:04.706Z,8.90
2023-02-19T01:49:49.679Z,7.10
2023-02-19T01:52:32.503Z,7.30
2023-02-19T01:55:09.529Z,7.90
2023-02-19T01:57:46.884Z,7.90
2023-02-19T02:00:24.927Z,7.70
2023-02-19T02:03:02.499Z,8.10
2023-02-19T02:06:13.630Z,8.30
2023-02-19T02:09:05.689Z,7.90
2023-02-19T02:11:41.379Z,8.40
2023-02-19T02:14:15.717Z,8.70
2023-02-19T02:17:02.153Z,8.80
2023-02-19T02:19:44.383Z,7.10
2023-02-19T02:22:25.503Z,7.00
2023-02-19T02:25:21.832Z,7.40
2023-02-19T02:28:42.698Z,7.80
2023-02-19T02:31:28.228Z,7.10
2023-02-19T02:34:29.401Z,7.80
2023-02-19T02:37:03.774Z,8.20
2023-02-19T02:39:39.340Z,8.90
2023-02-19T02:42:31.878Z,8.20
2023-02-19T02:45:40.270Z,10.00
2023-02-19T02:48:30.575Z,9.00
2023-02-19T02:51:25.690Z,8.90
2023-02-19T02:54:54.821Z,8.20
2023-02-19T02:57:28.052Z,8.00
2023-02-19T03:00:02.539Z,8.80
2023-02-19T03:02:36.444Z,7.90
2023-02-19T03:05:31.128Z,7.70
2023-02-19T03:08:39.562Z,8.60
2023-02-19T03:11:33.639Z,10.70
2023-02-19T03:14:37.886Z,8.80
2023-02-19T03:17:58.329Z,7.70
2023-02-19T03:20:36.692Z,7.20
2023-02-19T03:23:11.248Z,7.50
2023-02-19T03:26:03.210Z,9.40
2023-02-19T03:29:06.687Z,7.80
2023-02-19T03:31:42.142Z,7.50
2023-02-19T03:34:21.760Z,7.20
2023-02-19T03:37:08.981Z,6.90
2023-02-19T03:39:49.096Z,5.70
2023-02-19T03:42:56.283Z,4.90
2023-02-19T03:45:55.683Z,7.30
2023-02-19T03:48:51.738Z,6.10
2023-02-19T03:51:48.377Z,7.30
2023-02-19T03:54:31.079Z,6.70
2023-02-19T03:57:20.897Z,6.90
2023-02-19T04:00:20.291Z,7.70
2023-02-19T04:03:00.452Z,5.90
2023-02-19T04:05:39.534Z,6.70
2023-02-19T04:08:20.914Z,7.10
2023-02-19T04:11:00.735Z,6.00
2023-02-19T04:13:48.216Z,7.10
2023-02-19T04:16:26.563Z,6.50
2023-02-19T04:19:06.254Z,6.40
2023-02-19T04:21:41.856Z,6.90
2023-02-19T04:24:24.896Z,6.30
2023-02-19T04:26:59.353Z,8.70
2023-02-19T04:29:32.784Z,7.30
2023-02-19T04:32:06.112Z,6.50
2023-02-19T04:34:39.190Z,5.30
2023-02-19T04:37:13.120Z,5.10
2023-02-19T04:39:46.573Z,7.30
2023-02-19T04:42:20.554Z,7.40
2023-02-19T04:44:54.497Z,5.80
2023-02-19T04:47:28.058Z,6.90
2023-02-19T04:50:01.096Z,7.70
2023-02-19T04:52:34.182Z,6.80
2023-02-19T04:55:07.790Z,9.10
2023-02-19T04:57:41.369Z,9.10
2023-02-19T05:00:15.214Z,8.70
2023-02-19T05:02:48.530Z,7.50
2023-02-19T05:05:21.888Z,8.20
2023-02-19T05:07:56.296Z,8.40
2023-02-19T05:10:29.549Z,7.70
2023-02-19T05:13:02.504Z,5.40
2023-02-19T05:15:35.782Z,6.00
2023-02-19T05:18:08.894Z,7.70
2023-02-19T05:20:42.363Z,7.10
2023-02-19T05:23:15.458Z,6.90
2023-02-19T05:25:48.617Z,6.90
2023-02-19T05:28:30.321Z,7.70
2023-02-19T05:31:08.751Z,7.20
2023-02-19T05:33:43.599Z,8.50
2023-02-19T05:36:17.091Z,6.90
2023-02-19T05:38:53.473Z,7.70
2023-02-19T05:41:31.686Z,7.50
2023-02-19T05:44:04.925Z,11.50
2023-02-19T05:46:38.840Z,11.80
2023-02-19T05:49:12.507Z,14.20
2023-02-19T05:51:46.418Z,9.30
2023-02-19T05:54:19.510Z,10.60
2023-02-19T05:56:52.990Z,12.00
2023-02-19T05:59:29.212Z,9.20
2023-02-19T06:02:02.641Z,8.60
2023-02-19T06:04:35.892Z,7.30
2023-02-19T06:07:09.494Z,8.50
2023-02-19T06:09:42.429Z,8.80
2023-02-19T06:12:16.481Z,8.20
2023-02-19T06:14:49.715Z,8.70
2023-02-19T06:17:22.725Z,8.10
2023-02-19T06:19:56.102Z,6.50
2023-02-19T06:22:30.214Z,7.60
2023-02-19T06:25:03.974Z,8.80
2023-02-19T06:27:38.483Z,8.40
2023-02-19T06:30:12.641Z,8.60
2023-02-19T06:32:46.192Z,7.00
2023-02-19T06:35:19.883Z,7.60
2023-02-19T06:37:53.488Z,8.40
2023-02-19T06:40:27.821Z,7.40
2023-02-19T06:43:01.111Z,7.00
2023-02-19T06:45:34.370Z,7.50
2023-02-19T06:48:07.968Z,7.80
2023-02-19T06:50:41.109Z,8.40
2023-02-19T06:53:14.597Z,8.10
2023-02-19T06:55:58.552Z,9.50
2023-02-19T06:58:32.320Z,7.90
2023-02-19T07:01:05.566Z,9.50
2023-02-19T07:03:40.524Z,7.50
2023-02-19T07:06:13.942Z,8.60
2023-02-19T07:08:48.029Z,10.10
2023-02-19T07:11:21.320Z,10.40
2023-02-19T07:14:01.514Z,7.90
2023-02-19T07:16:35.264Z,8.70
2023-02-19T07:19:10.301Z,10.00
2023-02-19T07:21:43.848Z,6.70
2023-02-19T07:24:17.228Z,6.30
2023-02-19T07:26:49.908Z,7.10
2023-02-19T07:29:23.314Z,6.10
2023-02-19T07:31:56.367Z,7.30
2023-02-19T07:34:29.443Z,6.50
2023-02-19T07:37:02.512Z,8.20
2023-02-19T07:39:37.142Z,6.90
2023-02-19T07:42:09.996Z,6.70
2023-02-19T07:44:44.904Z,7.70
2023-02-19T07:47:18.410Z,7.10
2023-02-19T07:49:53.371Z,7.30
2023-02-19T07:52:26.446Z,8.30
2023-02-19T07:55:00.335Z,7.80
2023-02-19T07:57:33.298Z,6.80
2023-02-19T08:00:06.683Z,7.80
2023-02-19T08:03:04.210Z,7.10
2023-02-19T08:05:43.383Z,6.50
2023-02-19T08:08:17.770Z,7.10
2023-02-19T08:11:10.201Z,7.80
2023-02-19T08:13:43.210Z,5.90
2023-02-19T08:16:26.594Z,7.90
2023-02-19T08:19:05.092Z,7.30
2023-02-19T08:21:38.826Z,8.50
2023-02-19T08:24:11.840Z,8.50
2023-02-19T08:26:45.152Z,8.50
2023-02-19T08:29:18.505Z,7.40
2023-02-19T08:31:52.105Z,8.60
2023-02-19T08:34:25.457Z,8.00
2023-02-19T08:36:59.121Z,8.20
2023-02-19T08:39:32.164Z,8.30
2023-02-19T08:42:05.690Z,7.60
2023-02-19T08:44:39.176Z,9.20
2023-02-19T08:47:12.674Z,8.30
2023-02-19T08:49:45.941Z,8.00
2023-02-19T08:52:19.654Z,7.70
2023-02-19T08:54:53.175Z,6.60
2023-02-19T08:57:27.372Z,6.80
2023-02-19T09:00:00.843Z,6.70
2023-02-19T09:02:34.259Z,7.00
2023-02-19T09:05:07.951Z,8.50
2023-02-19T09:07:42.110Z,7.70
2023-02-19T09:10:16.540Z,7.30
2023-02-19T09:12:50.360Z,7.70
2023-02-19T09:15:24.000Z,7.60
2023-02-19T09:17:58.118Z,7.10
2023-02-19T09:20:32.060Z,8.30
2023-02-19T09:23:06.105Z,9.80
2023-02-19T09:25:39.334Z,7.30
2023-02-19T09:28:13.477Z,7.90
2023-02-19T09:30:46.749Z,8.10
2023-02-19T09:33:20.268Z,8.60
2023-02-19T09:35:53.688Z,8.70
2023-02-19T09:38:27.315Z,7.30
2023-02-19T09:41:10.830Z,8.00
2023-02-19T09:43:45.194Z,8.00
2023-02-19T09:46:35.342Z,7.00
2023-02-19T09:49:15.631Z,7.50
2023-02-19T09:51:56.777Z,8.20
2023-02-19T09:54:34.395Z,7.10
2023-02-19T09:57:11.602Z,8.20
2023-02-19T10:00:00.229Z,7.60
2023-02-19T10:02:33.557Z,8.30
2023-02-19T10:05:17.739Z,7.80
2023-02-19T10:07:53.485Z,8.00
2023-02-19T10:10:39.911Z,9.60
2023-02-19T10:13:23.534Z,8.10
2023-02-19T10:16:02.767Z,9.50
2023-02-19T10:18:43.694Z,7.20
2023-02-19T10:21:28.555Z,8.40
2023-02-19T10:24:05.191Z,8.60
2023-02-19T10:26:38.356Z,9.30
2023-02-19T10:29:13.274Z,9.90
2023-02-19T10:31:46.523Z,9.60
2023-02-19T10:34:26.131Z,9.50
2023-02-19T10:36:59.453Z,9.90
2023-02-19T10:39:47.236Z,9.40
2023-02-19T10:42:26.170Z,8.70
2023-02-19T10:45:04.828Z,10.00
2023-02-19T10:47:38.246Z,10.00
2023-02-19T10:50:23.750Z,9.30
2023-02-19T10:53:02.772Z,9.00
2023-02-19T10:55:38.275Z,11.40
2023-02-19T10:58:30.788Z,9.10
2023-02-19T11:03:55.642Z,8.20
2023-02-19T11:06:30.108Z,12.50
2023-02-19T11:09:04.571Z,9.60
2023-02-19T11:11:43.112Z,11.50
2023-02-19T11:14:22.185Z,12.60
2023-02-19T11:17:00.343Z,13.60
2023-02-19T11:19:43.568Z,12.30
2023-02-19T11:22:39.843Z,25.60
2023-02-19T11:25:18.389Z,30.80
2023-02-19T11:28:29.465Z,30.40
2023-02-19T11:31:21.333Z,43.30
2023-02-19T11:34:29.724Z,18.20
2023-02-19T11:37:17.988Z,14.50
2023-02-19T11:39:53.329Z,15.30
2023-02-19T11:42:58.828Z,14.30
2023-02-19T11:45:50.268Z,9.20
2023-02-19T11:48:48.900Z,10.10
2023-02-19T11:51:51.482Z,10.30
2023-02-19T11:54:53.304Z,12.80
2023-02-19T11:57:43.664Z,14.60
2023-02-19T12:00:28.870Z,16.30
2023-02-19T12:03:07.150Z,11.20
2023-02-19T12:05:47.431Z,10.10
2023-02-19T12:08:46.435Z,8.40
2023-02-19T12:11:24.709Z,10.20
2023-02-19T12:14:09.754Z,10.20
2023-02-19T12:16:58.232Z,10.50
2023-02-19T12:19:45.608Z,9.10
2023-02-19T12:22:35.506Z,8.80
2023-02-19T12:25:34.444Z,10.50
2023-02-19T12:28:25.337Z,12.10
2023-02-19T12:31:35.527Z,10.00
2023-02-19T12:34:35.650Z,10.60
2023-02-19T12:37:39.309Z,9.70
2023-02-19T12:40:14.786Z,10.80
2023-02-19T12:43:05.221Z,9.40
2023-02-19T12:45:50.020Z,9.80
2023-02-19T12:48:45.288Z,11.00
2023-02-19T12:51:38.278Z,11.60
2023-02-19T12:54:19.153Z,9.70
2023-02-19T12:57:03.033Z,11.30
2023-02-19T12:59:40.072Z,11.10
2023-02-19T13:02:41.401Z,9.80
2023-02-19T13:05:16.850Z,9.30
2023-02-19T13:08:13.095Z,8.40
2023-02-19T13:11:13.125Z,8.10
2023-02-19T13:14:00.389Z,8.80
2023-02-19T13:16:35.539Z,8.70
2023-02-19T13:19:09.586Z,8.50
2023-02-19T13:22:02.637Z,8.30
2023-02-19T13:24:41.902Z,11.40
2023-02-19T13:30:44.313Z,8.60
2023-02-19T13:33:35.503Z,11.10
2023-02-19T13:36:25.552Z,8.90
2023-02-19T13:39:01.369Z,7.80
2023-02-19T13:41:53.220Z,8.90
2023-02-19T13:44:31.888Z,8.60
2023-02-19T13:47:06.885Z,8.10
2023-02-19T13:49:52.986Z,8.40
2023-02-19T13:52:34.813Z,10.60
2023-02-19T13:55:53.034Z,9.30
2023-02-19T13:58:55.699Z,9.20
2023-02-19T14:04:43.710Z,8.70
2023-02-19T14:07:16.509Z,8.10
2023-02-19T14:09:50.075Z,9.40
2023-02-19T14:12:25.639Z,9.00
2023-02-19T14:14:59.536Z,9.50
2023-02-19T14:17:48.484Z,10.50
2023-02-19T14:20:39.412Z,9.30
2023-02-19T14:23:27.556Z,8.60
2023-02-19T14:26:05.204Z,8.80
2023-02-19T14:28:45.692Z,8.60
2023-02-19T14:31:33.829Z,11.70
2023-02-19T14:34:27.594Z,9.20
2023-02-19T14:37:07.381Z,11.60
2023-02-19T14:39:41.924Z,9.50
2023-02-19T14:42:28.334Z,10.60
2023-02-19T14:45:05.270Z,14.50
2023-02-19T14:47:40.060Z,10.90
2023-02-19T14:50:44.949Z,9.20
2023-02-19T14:53:21.322Z,9.90
2023-02-19T14:55:57.708Z,12.30
2023-02-19T14:58:37.918Z,11.00
2023-02-19T15:01:29.661Z,10.10
2023-02-19T15:04:03.358Z,8.30
2023-02-19T15:06:40.383Z,7.70
2023-02-19T15:09:16.564Z,7.50
2023-02-19T15:11:50.548Z,7.80
2023-02-19T15:14:29.375Z,9.10
2023-02-19T15:17:07.518Z,9.40
2023-02-19T15:19:45.367Z,8.20
2023-02-19T15:22:22.876Z,10.40
2023-02-19T15:24:56.995Z,11.60
2023-02-19T15:27:31.185Z,12.00
2023-02-19T15:30:04.991Z,11.70
2023-02-19T15:32:38.815Z,9.30
2023-02-19T15:35:24.605Z,8.60
2023-02-19T15:37:59.055Z,10.90
2023-02-19T15:40:34.374Z,9.80
2023-02-19T15:43:08.126Z,8.00
2023-02-19T15:45:47.351Z,7.70
2023-02-19T15:48:27.717Z,7.90
2023-02-19T15:51:12.043Z,7.90
2023-02-19T15:53:51.396Z,10.60
2023-02-19T15:56:36.152Z,10.20
2023-02-19T15:59:16.349Z,12.80
2023-02-19T16:01:50.771Z,8.90
2023-02-19T16:04:24.552Z,12.00
2023-02-19T16:07:03.271Z,18.20
2023-02-19T16:09:41.145Z,13.10
2023-02-19T16:12:26.422Z,10.20
2023-02-19T16:15:00.372Z,16.30
2023-02-19T16:17:33.911Z,14.60
2023-02-19T16:20:09.564Z,13.30
2023-02-19T16:22:45.044Z,14.00
2023-02-19T16:25:46.126Z,18.80
2023-02-19T16:28:30.247Z,16.60
2023-02-19T16:31:12.077Z,15.50
2023-02-19T16:33:49.175Z,13.80
2023-02-19T16:36:32.409Z,16.00
2023-02-19T16:39:13.000Z,19.60
2023-02-19T16:41:52.629Z,14.70
2023-02-19T16:44:36.534Z,15.60
2023-02-19T16:47:27.082Z,13.50
2023-02-19T16:50:02.215Z,20.80
2023-02-19T16:52:39.747Z,22.00
2023-02-19T16:55:16.918Z,30.00
2023-02-19T16:57:50.879Z,25.10
2023-02-19T17:00:33.186Z,29.70
2023-02-19T17:03:29.489Z,53.70
2023-02-19T17:06:03.028Z,56.00
2023-02-19T17:08:41.038Z,46.70
2023-02-19T17:11:19.498Z,44.50
2023-02-19T17:13:52.800Z,42.60
2023-02-19T17:16:32.482Z,37.20
2023-02-19T17:19:11.600Z,34.80
2023-02-19T17:21:45.711Z,28.80
2023-02-19T17:24:18.950Z,28.80
2023-02-19T17:26:55.451Z,18.20
2023-02-19T17:29:33.654Z,16.70
2023-02-19T17:32:07.679Z,18.50
2023-02-19T17:34:42.521Z,21.70
2023-02-19T17:37:15.944Z,21.50
2023-02-19T17:39:52.964Z,22.50
2023-02-19T17:42:27.102Z,24.90
2023-02-19T17:45:00.955Z,28.80
2023-02-19T17:47:34.765Z,26.10
2023-02-19T17:50:08.329Z,35.50
2023-02-19T17:52:41.617Z,31.80
2023-02-19T17:55:20.052Z,42.30
2023-02-19T17:57:54.523Z,35.90
2023-02-19T18:00:33.076Z,38.40
2023-02-19T18:03:08.545Z,37.50
2023-02-19T18:05:42.374Z,35.00
2023-02-19T18:08:16.650Z,36.00
2023-02-19T18:10:49.878Z,38.90
2023-02-19T18:13:23.672Z,33.70
2023-02-19T18:15:57.178Z,31.10
2023-02-19T18:18:30.979Z,28.70
2023-02-19T18:21:04.409Z,31.40
2023-02-19T18:23:38.791Z,32.20
2023-02-19T18:26:20.581Z,34.80
2023-02-19T18:28:55.186Z,34.70
2023-02-19T18:31:29.027Z,38.00
2023-02-19T18:34:02.322Z,33.00
2023-02-19T18:36:36.330Z,39.00
2023-02-19T18:39:10.520Z,40.80
2023-02-19T18:41:48.649Z,36.60
2023-02-19T18:44:23.774Z,37.80
2023-02-19T18:46:57.398Z,35.80
2023-02-19T18:49:32.950Z,30.10
2023-02-19T18:52:06.315Z,27.90
2023-02-19T18:54:39.531Z,28.40
2023-02-19T18:57:12.722Z,31.20
2023-02-19T18:59:46.733Z,28.80
2023-02-19T19:02:20.605Z,26.40
2023-02-19T19:04:57.120Z,23.30
2023-02-19T19:07:31.230Z,24.70
2023-02-19T19:10:05.593Z,23.10
2023-02-19T19:12:39.136Z,17.10
2023-02-19T19:15:12.956Z,26.80
2023-02-19T19:17:56.382Z,25.90
2023-02-19T19:20:30.194Z,28.70
2023-02-19T19:23:05.436Z,29.80
2023-02-19T19:25:39.444Z,25.30
2023-02-19T19:28:13.445Z,26.20
2023-02-19T19:30:47.142Z,24.90
2023-02-19T19:33:20.623Z,26.40
2023-02-19T19:35:53.964Z,25.10
2023-02-19T19:38:27.222Z,16.10
2023-02-19T19:41:00.864Z,10.70
2023-02-19T19:43:34.679Z,9.00
2023-02-19T19:46:09.563Z,7.20
2023-02-19T19:48:45.204Z,8.90
2023-02-19T19:51:18.854Z,11.50
2023-02-19T19:53:52.815Z,10.80
2023-02-19T19:56:25.810Z,8.50
2023-02-19T19:58:58.260Z,9.70
2023-02-19T20:01:31.378Z,7.00
2023-02-19T20:04:04.835Z,7.40
2023-02-19T20:06:38.059Z,8.20
2023-02-19T20:09:11.827Z,6.50
2023-02-19T20:11:49.134Z,11.80
2023-02-19T20:14:23.075Z,9.50
2023-02-19T20:16:57.174Z,10.10
2023-02-19T20:19:30.230Z,10.60
2023-02-19T20:22:03.371Z,10.70
2023-02-19T20:24:36.684Z,10.00
2023-02-19T20:27:10.629Z,11.10
2023-02-19T20:29:48.033Z,10.10
2023-02-19T20:32:21.754Z,8.20
2023-02-19T20:34:54.615Z,7.80
2023-02-19T20:37:27.506Z,5.70
2023-02-19T20:40:00.263Z,4.40
2023-02-19T20:42:33.417Z,4.00
2023-02-19T20:45:06.956Z,4.50
2023-02-19T20:47:41.929Z,4.50
2023-02-19T20:50:19.483Z,6.90
2023-02-19T20:52:53.762Z,2.80
2023-02-19T20:55:26.684Z,3.90
2023-02-19T20:57:59.909Z,5.40
2023-02-19T21:00:33.235Z,2.40
2023-02-19T21:03:09.571Z,3.40
2023-02-19T21:05:45.444Z,1.70
2023-02-19T21:08:19.437Z,3.50
2023-02-19T21:10:52.572Z,3.80
2023-02-19T21:13:26.082Z,2.80
2023-02-19T21:15:59.226Z,2.90
2023-02-19T21:18:32.566Z,5.80
2023-02-19T21:21:05.773Z,3.30
2023-02-19T21:23:39.695Z,1.80
2023-02-19T21:26:12.930Z,2.60
2023-02-19T21:28:46.841Z,4.30
2023-02-19T21:31:19.963Z,3.50
2023-02-19T21:33:53.272Z,3.60
2023-02-19T21:36:26.286Z,2.60
2023-02-19T21:38:59.467Z,2.50
2023-02-19T21:41:32.354Z,3.60
2023-02-19T21:44:05.538Z,4.30
2023-02-19T21:46:38.582Z,3.90
2023-02-19T21:49:12.410Z,5.80
2023-02-19T21:51:48.406Z,3.20
2023-02-19T21:54:26.341Z,5.10
2023-02-19T21:56:59.358Z,4.60
2023-02-19T21:59:32.255Z,6.10
2023-02-19T22:02:05.274Z,4.40
2023-02-19T22:04:38.496Z,5.10
2023-02-19T22:07:12.313Z,6.20
2023-02-19T22:09:45.576Z,4.10
2023-02-19T22:12:18.773Z,4.80
2023-02-19T22:14:53.267Z,7.70
2023-02-19T22:17:26.597Z,7.20
2023-02-19T22:19:59.517Z,4.40
2023-02-19T22:22:32.968Z,6.80
2023-02-19T22:25:06.981Z,6.00
2023-02-19T22:27:40.129Z,6.30
2023-02-19T22:30:14.388Z,6.20
2023-02-19T22:32:49.476Z,6.70
2023-02-19T22:35:22.605Z,5.20
2023-02-19T22:37:56.147Z,5.20
2023-02-19T22:40:29.850Z,6.60
2023-02-19T22:43:02.736Z,6.00
2023-02-19T22:45:36.125Z,6.60
2023-02-19T22:48:10.516Z,7.10
2023-02-19T22:50:45.434Z,6.30
2023-02-19T22:53:18.395Z,4.10
2023-02-19T22:55:51.414Z,7.80
2023-02-19T22:58:24.796Z,5.30
2023-02-19T23:00:58.452Z,5.20
2023-02-19T23:03:31.529Z,6.00
2023-02-19T23:06:07.758Z,8.70
2023-02-19T23:08:40.952Z,7.00
2023-02-19T23:11:15.520Z,5.70
2023-02-19T23:13:48.670Z,6.20
2023-02-19T23:16:22.224Z,5.60
2023-02-19T23:18:55.300Z,5.70
2023-02-19T23:21:30.372Z,6.20
2023-02-19T23:24:03.740Z,6.00
2023-02-19T23:26:36.933Z,4.60
2023-02-19T23:29:10.125Z,9.20
2023-02-19T23:31:43.321Z,7.40
2023-02-19T23:34:16.633Z,8.10
2023-02-19T23:36:53.042Z,8.30
2023-02-19T23:39:26.130Z,7.30
2023-02-19T23:42:00.115Z,8.60
2023-02-19T23:44:33.464Z,8.60
2023-02-19T23:47:06.196Z,6.70
2023-02-19T23:49:38.827Z,7.40
2023-02-19T23:52:12.290Z,6.60
2023-02-19T23:54:45.160Z,4.30
2023-02-19T23:57:18.229Z,7.70
2023-02-19T23:59:51.314Z,6.00
